Aviation Digital Data Service (ADDS)

Output produced by METARs form (0345 UTC 26 June 2019)
found at http://www.aviationweather.gov/metar/data/
 
Forecast for: PGUM (AGANA , GU, US)
Text: PGUM 252327Z 2600/2706 10015KT P6SM SCT024
Forecast period: 0000 to 0900 UTC 26 June 2019
Forecast type: FROM: standard forecast or significant change
Winds: from the E (100 degrees) at 17 MPH (15 knots; 7.7 m/s)
Visibility: 6 or more miles 10+ km)
Ceiling: at least 12,000 feet AGL
Clouds: scattered clouds at 2400 feet AGL
Weather: no significant weather forecast for this period
Text: FM260900 08008KT P6SM FEW022
Forecast period: 0900 UTC 26 June 2019 to 0600 UTC 27 June 2019
Forecast type: FROM: standard forecast or significant change
Winds: from the E (80 degrees) at 9 MPH (8 knots; 4.1 m/s)
Visibility: 6 or more miles 10+ km)
Ceiling: at least 12,000 feet AGL
Clouds: few clouds at 2200 feet AGL
Weather: no significant weather forecast for this period